Time;durP1;ratioP1;P1;durP2;ratioP2;P2;SDS_P1;SDS_P2;PMS_P1;PMS_P2;Temp;Humidity;BMP_temperature;BMP_pressure;BME280_temperature;BME280_humidity;BME280_pressure;Samples;Min_cycle;Max_cycle;Signal;HPM_P1;HPM_P2
2022/09/26 00:01:26;;;;;;;4.15;1.35;;;22.40;56.70;;;;;;5043515;28;20620;-58
2022/09/26 00:03:57;;;;;;;1.15;0.90;;;22.40;56.70;;;;;;5041953;28;20030;-53
2022/09/26 00:06:24;;;;;;;1.83;1.00;;;22.40;56.60;;;;;;5049601;28;20071;-58
2022/09/26 00:08:50;;;;;;;2.30;1.13;;;22.50;56.70;;;;;;5053450;28;20037;-58
2022/09/26 00:11:20;;;;;;;3.10;1.00;;;22.50;56.70;;;;;;5046978;28;20025;-58
2022/09/26 00:13:46;;;;;;;1.13;0.90;;;22.40;56.70;;;;;;5053410;28;20432;-59
2022/09/26 00:16:14;;;;;;;1.50;1.00;;;22.40;56.70;;;;;;5051668;28;20521;-58
2022/09/26 00:18:39;;;;;;;1.40;1.00;;;22.40;56.70;;;;;;5053309;28;20045;-59
2022/09/26 00:21:08;;;;;;;2.70;1.13;;;22.40;56.70;;;;;;5052905;28;20033;-46
2022/09/26 00:23:34;;;;;;;1.00;0.70;;;22.40;56.60;;;;;;5053295;28;20017;-59
2022/09/26 00:26:00;;;;;;;1.80;1.20;;;22.40;56.60;;;;;;5052951;28;20033;-58
2022/09/26 00:28:26;;;;;;;1.17;0.90;;;22.40;56.60;;;;;;5050189;28;20025;-58
2022/09/26 00:30:53;;;;;;;1.45;1.30;;;22.50;56.70;;;;;;5053358;28;20485;-58
2022/09/26 00:33:18;;;;;;;1.60;1.20;;;22.40;56.60;;;;;;5051404;28;20470;-58
2022/09/26 00:35:52;;;;;;;1.58;1.10;;;22.40;56.60;;;;;;5053826;28;20037;-58
2022/09/26 00:38:18;;;;;;;1.30;0.95;;;22.40;56.60;;;;;;5052310;28;20043;-59
2022/09/26 00:40:45;;;;;;;1.52;1.00;;;22.40;56.70;;;;;;5053510;28;20029;-57
2022/09/26 00:43:29;;;;;;;2.58;1.00;;;22.40;57.20;;;;;;5051090;28;20036;-58
2022/09/26 00:46:10;;;;;;;2.53;1.05;;;22.40;56.60;;;;;;5045615;28;20033;-58
2022/09/26 00:48:36;;;;;;;2.93;1.00;;;22.40;56.60;;;;;;5048112;28;20074;-58
2022/09/26 00:51:03;;;;;;;1.02;0.85;;;22.40;56.60;;;;;;5053356;28;20118;-58
2022/09/26 00:53:35;;;;;;;2.67;1.27;;;22.40;56.60;;;;;;5051248;28;20043;-58
2022/09/26 00:56:10;;;;;;;1.15;1.00;;;22.40;56.60;;;;;;5053186;28;20032;-57
2022/09/26 00:58:45;;;;;;;1.83;0.95;;;22.40;56.50;;;;;;5052689;28;20473;-58
2022/09/26 01:01:12;;;;;;;1.92;1.08;;;22.40;56.50;;;;;;5052349;28;20052;-58
2022/09/26 01:03:40;;;;;;;1.00;0.80;;;22.40;56.60;;;;;;5049498;28;20029;-58
2022/09/26 01:06:05;;;;;;;1.20;0.93;;;22.40;56.50;;;;;;5052307;28;20021;-46
2022/09/26 01:08:37;;;;;;;2.47;1.10;;;22.40;56.50;;;;;;5051929;28;20454;-56
2022/09/26 01:11:03;;;;;;;1.80;0.90;;;22.40;56.50;;;;;;5048332;28;20035;-47
2022/09/26 01:13:32;;;;;;;1.40;1.10;;;22.40;56.50;;;;;;5051900;28;20073;-57
2022/09/26 01:15:58;;;;;;;1.23;1.00;;;22.40;56.50;;;;;;5052115;28;20052;-57
2022/09/26 01:18:24;;;;;;;1.60;1.00;;;22.40;56.50;;;;;;5051338;28;20063;-58
2022/09/26 01:21:08;;;;;;;1.25;1.08;;;22.40;56.50;;;;;;5045643;28;20029;-58
2022/09/26 01:23:53;;;;;;;1.27;0.93;;;22.40;56.50;;;;;;5049513;28;20035;-57
2022/09/26 01:26:44;;;;;;;1.58;1.27;;;22.40;56.40;;;;;;5052037;28;20032;-58
2022/09/26 01:29:18;;;;;;;1.15;0.98;;;22.40;56.40;;;;;;5051229;28;20154;-57
2022/09/26 01:34:52;;;;;;;;;;;22.40;56.50;;;;;;5052889;28;20116;-58
2022/09/26 01:37:39;;;;;;;1.15;0.80;;;22.40;56.40;;;;;;5039534;28;19909;-58
2022/09/26 01:40:14;;;;;;;1.42;1.00;;;22.40;56.40;;;;;;5051215;28;20033;-47
2022/09/26 01:43:04;;;;;;;0.93;0.80;;;22.40;56.30;;;;;;5052648;28;20021;-59
2022/09/26 01:45:45;;;;;;;1.20;0.85;;;22.40;56.30;;;;;;5050993;28;20524;-58
2022/09/26 01:48:17;;;;;;;1.40;0.95;;;22.40;56.30;;;;;;5051076;28;20029;-58
2022/09/26 01:50:50;;;;;;;;;;;22.40;56.30;;;;;;5051705;28;20124;-58
2022/09/26 01:53:24;;;;;;;1.27;0.68;;;22.40;56.30;;;;;;5032960;28;20345;-58
2022/09/26 01:56:02;;;;;;;1.50;0.73;;;22.40;56.30;;;;;;5050683;28;20114;-58
2022/09/26 01:58:34;;;;;;;1.10;0.90;;;22.40;56.20;;;;;;5043810;28;20025;-58
2022/09/26 02:01:07;;;;;;;1.52;1.02;;;22.40;56.20;;;;;;5044711;28;20452;-58
2022/09/26 02:03:38;;;;;;;1.27;0.98;;;22.40;56.20;;;;;;5051368;28;20031;-55
2022/09/26 02:06:22;;;;;;;2.33;1.10;;;22.40;56.20;;;;;;5052003;28;20033;-48
2022/09/26 02:08:55;;;;;;;1.17;0.90;;;22.40;56.20;;;;;;5048333;28;20500;-59
2022/09/26 02:11:21;;;;;;;2.58;1.23;;;22.30;56.20;;;;;;5043411;28;20053;-58
2022/09/26 02:13:50;;;;;;;1.23;0.90;;;22.30;56.10;;;;;;5051062;28;20543;-58
2022/09/26 02:16:24;;;;;;;1.60;0.95;;;22.40;56.10;;;;;;5050794;28;20032;-58
2022/09/26 02:18:56;;;;;;;1.00;0.80;;;22.40;56.10;;;;;;5050204;28;20477;-58
2022/09/26 02:21:23;;;;;;;1.00;0.88;;;22.40;56.10;;;;;;5050811;28;20163;-58
2022/09/26 02:23:51;;;;;;;1.65;1.00;;;22.40;56.10;;;;;;5050711;28;20039;-58
2022/09/26 02:26:17;;;;;;;2.22;0.73;;;22.30;56.00;;;;;;5050921;28;20543;-57
2022/09/26 02:28:44;;;;;;;2.00;0.80;;;22.40;56.10;;;;;;5046067;28;20037;-58
2022/09/26 02:31:13;;;;;;;1.08;0.82;;;22.40;56.10;;;;;;5050534;28;20029;-58
2022/09/26 02:33:38;;;;;;;1.92;1.10;;;22.40;56.10;;;;;;5051155;28;20460;-59
2022/09/26 02:36:09;;;;;;;1.52;0.90;;;22.40;56.10;;;;;;5033335;28;20056;-49
2022/09/26 02:38:36;;;;;;;2.33;1.05;;;22.30;56.00;;;;;;5050665;28;20063;-58
2022/09/26 02:41:12;;;;;;;0.90;0.80;;;22.40;56.10;;;;;;5050387;28;20040;-58
2022/09/26 02:43:58;;;;;;;1.20;0.88;;;22.40;56.00;;;;;;5049832;28;20075;-58
2022/09/26 02:46:27;;;;;;;1.73;0.90;;;22.30;56.00;;;;;;5050371;28;20083;-59
2022/09/26 02:49:17;;;;;;;1.17;0.88;;;22.30;55.90;;;;;;5049608;28;20037;-58
2022/09/26 02:52:06;;;;;;;1.30;0.80;;;22.30;55.90;;;;;;5051557;28;20033;-58
2022/09/26 02:54:56;;;;;;;1.17;0.90;;;22.40;56.00;;;;;;5050856;28;20063;-58
2022/09/26 02:57:45;;;;;;;1.02;0.93;;;22.30;55.90;;;;;;5049649;28;20064;-58
2022/09/26 03:00:17;;;;;;;1.15;0.77;;;22.30;56.00;;;;;;4999371;28;20049;-58
2022/09/26 03:02:54;;;;;;;1.55;1.10;;;22.30;55.90;;;;;;5051021;28;20045;-59
2022/09/26 03:05:26;;;;;;;1.40;0.82;;;22.40;56.00;;;;;;5050053;28;20021;-59
2022/09/26 03:08:01;;;;;;;1.80;0.90;;;22.30;55.80;;;;;;5051451;28;20033;-59
2022/09/26 03:10:29;;;;;;;1.20;0.90;;;22.30;55.80;;;;;;5044619;28;20064;-59
2022/09/26 03:13:01;;;;;;;1.85;1.20;;;22.30;55.80;;;;;;5050570;28;20075;-59
2022/09/26 03:15:30;;;;;;;1.40;1.00;;;22.30;55.80;;;;;;5049532;28;20040;-59
2022/09/26 03:17:57;;;;;;;1.75;0.93;;;22.30;55.80;;;;;;5048731;28;20037;-58
2022/09/26 03:20:23;;;;;;;1.52;0.70;;;22.30;55.80;;;;;;5048574;28;20150;-58
2022/09/26 03:22:49;;;;;;;0.98;0.80;;;22.30;55.80;;;;;;5051073;28;20443;-58
2022/09/26 03:25:23;;;;;;;2.45;1.10;;;22.30;55.80;;;;;;5049262;28;20048;-53
2022/09/26 03:27:51;;;;;;;1.27;0.98;;;22.30;55.70;;;;;;5050572;28;20040;-55
2022/09/26 03:30:19;;;;;;;1.38;0.77;;;22.30;55.70;;;;;;5048025;28;20044;-58
2022/09/26 03:32:45;;;;;;;1.65;1.00;;;22.30;55.90;;;;;;5051143;28;20056;-58
2022/09/26 03:35:11;;;;;;;1.98;1.55;;;22.30;56.20;;;;;;5047193;28;20109;-56
2022/09/26 03:37:37;;;;;;;1.42;1.00;;;22.30;56.00;;;;;;5049764;28;20021;-58
2022/09/26 03:40:04;;;;;;;2.50;0.93;;;22.30;56.10;;;;;;5048886;28;20087;-47
2022/09/26 03:42:32;;;;;;;1.58;0.95;;;22.30;56.10;;;;;;5049805;28;20033;-59
2022/09/26 03:45:02;;;;;;;1.23;0.82;;;22.30;56.00;;;;;;5050309;28;20104;-58
2022/09/26 03:47:27;;;;;;;1.08;0.80;;;22.30;55.90;;;;;;5049156;28;20067;-56
2022/09/26 03:49:53;;;;;;;1.48;0.98;;;22.30;56.00;;;;;;5048630;28;20065;-58
2022/09/26 03:52:20;;;;;;;1.58;0.80;;;22.30;55.80;;;;;;5050078;28;20492;-58
2022/09/26 03:54:46;;;;;;;1.17;0.98;;;22.30;55.80;;;;;;5053789;28;20381;-58
2022/09/26 03:57:13;;;;;;;2.92;1.10;;;22.30;55.70;;;;;;5053591;28;20063;-56
2022/09/26 03:59:38;;;;;;;1.90;0.90;;;22.30;55.70;;;;;;5052632;28;20041;-58
2022/09/26 04:02:04;;;;;;;1.15;0.95;;;22.30;55.60;;;;;;5053565;28;20041;-48
2022/09/26 04:04:31;;;;;;;0.77;0.75;;;22.30;55.70;;;;;;5053367;28;20025;-58
2022/09/26 04:06:57;;;;;;;1.27;0.93;;;22.30;55.70;;;;;;5053480;28;20029;-58
2022/09/26 04:09:23;;;;;;;1.17;0.60;;;22.30;55.60;;;;;;5048484;28;20025;-58
2022/09/26 04:11:49;;;;;;;1.17;1.00;;;22.30;55.60;;;;;;5054123;28;20108;-58
2022/09/26 04:14:16;;;;;;;1.90;0.80;;;22.30;55.60;;;;;;5052910;28;20037;-58
2022/09/26 04:16:42;;;;;;;1.15;0.90;;;22.30;55.50;;;;;;5052900;28;20135;-58
2022/09/26 04:19:08;;;;;;;0.98;0.88;;;22.30;55.60;;;;;;5052763;28;20072;-58
2022/09/26 04:21:34;;;;;;;1.08;0.70;;;22.30;55.50;;;;;;5046043;28;20056;-58
2022/09/26 04:24:00;;;;;;;1.52;0.70;;;22.30;55.50;;;;;;5053358;28;20043;-58
2022/09/26 04:26:26;;;;;;;1.92;0.85;;;22.30;55.50;;;;;;5051156;28;20031;-58
2022/09/26 04:28:54;;;;;;;1.90;0.88;;;22.30;55.50;;;;;;5052395;28;20692;-58
2022/09/26 04:31:21;;;;;;;0.90;0.80;;;22.30;55.50;;;;;;5053051;28;20017;-58
2022/09/26 04:33:47;;;;;;;1.25;0.90;;;22.30;55.40;;;;;;5052893;28;20170;-58
2022/09/26 04:36:15;;;;;;;1.20;0.90;;;22.30;55.40;;;;;;5052467;28;20025;-58
2022/09/26 04:38:40;;;;;;;1.20;0.73;;;22.30;55.50;;;;;;5051745;28;20032;-58
2022/09/26 04:41:09;;;;;;;1.08;0.60;;;22.30;55.40;;;;;;5052690;28;20092;-47
2022/09/26 04:43:35;;;;;;;1.45;0.82;;;22.30;55.40;;;;;;5050907;28;20021;-51
2022/09/26 04:46:01;;;;;;;1.17;0.93;;;22.30;55.40;;;;;;5053352;28;20061;-58
2022/09/26 04:48:27;;;;;;;1.33;0.80;;;22.30;55.40;;;;;;5050890;28;20760;-58
2022/09/26 04:50:53;;;;;;;2.05;0.98;;;22.30;55.40;;;;;;5053184;28;20108;-58
2022/09/26 04:53:18;;;;;;;0.77;0.70;;;22.20;55.30;;;;;;5052028;28;20112;-58
2022/09/26 04:55:45;;;;;;;1.05;0.80;;;22.30;55.30;;;;;;5052934;28;20477;-58
2022/09/26 04:58:12;;;;;;;1.73;0.90;;;22.30;55.30;;;;;;5044950;28;20500;-58
2022/09/26 05:00:44;;;;;;;1.38;1.02;;;22.30;55.30;;;;;;5050404;28;20040;-58
2022/09/26 05:03:11;;;;;;;;;;;22.30;55.30;;;;;;5052204;28;20039;-59
2022/09/26 05:05:43;;;;;;;1.20;0.80;;;22.30;55.30;;;;;;5049956;28;19908;-58
2022/09/26 05:08:09;;;;;;;0.80;0.60;;;22.30;55.30;;;;;;5051893;28;20047;-55
2022/09/26 05:10:35;;;;;;;1.70;1.00;;;22.30;55.30;;;;;;5048911;28;20112;-58
2022/09/26 05:13:02;;;;;;;1.10;0.98;;;22.30;55.20;;;;;;5052620;28;20561;-58
2022/09/26 05:15:28;;;;;;;1.20;0.68;;;22.30;55.20;;;;;;5048506;28;20115;-48
2022/09/26 05:17:58;;;;;;;1.15;0.63;;;22.30;55.20;;;;;;5048255;28;20386;-59
2022/09/26 05:20:28;;;;;;;1.67;1.15;;;22.30;55.20;;;;;;5050910;28;20305;-58
2022/09/26 05:22:57;;;;;;;7.85;1.42;;;22.20;55.20;;;;;;5052574;28;20441;-58
2022/09/26 05:28:09;;;;;;;12.25;1.42;;;22.30;55.30;;;;;;5050333;28;20143;-48
2022/09/26 05:30:34;;;;;;;2.13;0.80;;;22.30;55.40;;;;;;5044205;28;20037;-59
2022/09/26 05:33:00;;;;;;;4.47;1.02;;;22.30;55.40;;;;;;5049196;28;20037;-53
2022/09/26 05:35:34;;;;;;;2.60;1.00;;;22.30;55.50;;;;;;5048414;28;20091;-58
2022/09/26 05:38:02;;;;;;;3.45;1.30;;;22.30;55.70;;;;;;5050453;28;20033;-58
2022/09/26 05:43:11;;;;;;;6.65;1.42;;;22.30;55.60;;;;;;5050344;28;20103;-61
2022/09/26 05:45:37;;;;;;;5.03;1.40;;;22.30;55.70;;;;;;5051684;28;20057;-59
2022/09/26 05:48:04;;;;;;;4.25;1.15;;;22.40;55.30;;;;;;5050834;28;20028;-48
2022/09/26 05:50:30;;;;;;;4.95;1.25;;;22.40;54.80;;;;;;5051914;28;20515;-56
2022/09/26 05:52:56;;;;;;;2.05;1.20;;;22.30;52.40;;;;;;5051600;28;20064;-58
2022/09/26 05:55:23;;;;;;;4.93;1.60;;;22.30;51.20;;;;;;5048108;28;20037;-58
2022/09/26 05:57:53;;;;;;;2.33;1.48;;;22.30;51.30;;;;;;5050725;28;20041;-58
2022/09/26 06:00:19;;;;;;;5.47;1.48;;;22.30;50.10;;;;;;5050551;28;20041;-59
2022/09/26 06:02:45;;;;;;;7.75;1.27;;;22.30;49.50;;;;;;5051347;28;20048;-59
2022/09/26 06:05:10;;;;;;;3.42;1.27;;;22.30;48.90;;;;;;5049923;28;20535;-59
2022/09/26 06:07:36;;;;;;;3.92;1.58;;;22.20;49.90;;;;;;5051679;28;20108;-61
2022/09/26 06:10:04;;;;;;;1.75;1.05;;;22.10;49.60;;;;;;5051060;28;20488;-60
2022/09/26 06:12:30;;;;;;;6.85;1.40;;;22.20;49.10;;;;;;5054884;28;20033;-60
2022/09/26 06:14:55;;;;;;;6.75;1.45;;;22.10;49.30;;;;;;5049581;28;20103;-59
2022/09/26 06:17:21;;;;;;;14.20;1.75;;;22.10;49.00;;;;;;5038247;28;20542;-55
2022/09/26 06:19:47;;;;;;;2.88;1.40;;;22.10;49.00;;;;;;5046530;28;20045;-59
2022/09/26 06:22:12;;;;;;;6.95;1.58;;;22.10;49.50;;;;;;5044553;28;20033;-52
2022/09/26 06:24:38;;;;;;;5.57;1.30;;;22.10;49.20;;;;;;5046073;28;20037;-59
2022/09/26 06:27:03;;;;;;;2.42;1.33;;;22.10;48.80;;;;;;5045624;28;20025;-48
2022/09/26 06:29:29;;;;;;;3.08;1.17;;;22.20;48.70;;;;;;5046939;28;20040;-59
2022/09/26 06:31:55;;;;;;;3.15;1.00;;;22.20;48.70;;;;;;5050946;28;20056;-60
2022/09/26 06:34:21;;;;;;;3.90;1.17;;;22.10;48.50;;;;;;5049042;28;20020;-59
2022/09/26 06:36:46;;;;;;;5.00;1.00;;;22.10;49.00;;;;;;5048066;28;20032;-61
2022/09/26 06:39:13;;;;;;;2.78;1.30;;;22.20;48.30;;;;;;5043856;28;20061;-60
2022/09/26 06:41:39;;;;;;;2.97;1.30;;;22.20;48.10;;;;;;5048628;28;20086;-53
2022/09/26 06:44:04;;;;;;;3.03;1.02;;;22.20;50.00;;;;;;5041206;28;20037;-48
2022/09/26 06:46:30;;;;;;;2.78;1.30;;;22.20;51.40;;;;;;5045989;28;20851;-59
2022/09/26 06:48:56;;;;;;;2.22;1.00;;;22.20;52.70;;;;;;5049117;28;20036;-57
2022/09/26 06:51:22;;;;;;;2.45;1.08;;;22.20;52.70;;;;;;5049157;28;20033;-60
2022/09/26 06:53:48;;;;;;;3.58;1.77;;;22.20;52.70;;;;;;5050232;28;20105;-60
2022/09/26 06:56:14;;;;;;;4.00;1.30;;;22.20;52.70;;;;;;5041777;28;20073;-59
2022/09/26 06:58:40;;;;;;;1.25;0.82;;;22.20;52.70;;;;;;5048480;28;20041;-60
2022/09/26 07:01:06;;;;;;;2.40;1.35;;;22.20;53.20;;;;;;5048914;28;20171;-48
2022/09/26 07:03:32;;;;;;;5.03;1.25;;;22.20;52.90;;;;;;5048016;28;20028;-60
2022/09/26 07:05:58;;;;;;;2.90;1.33;;;22.20;52.90;;;;;;5050684;28;20022;-59
2022/09/26 07:08:24;;;;;;;1.83;0.68;;;22.30;53.10;;;;;;5049557;28;20094;-60
2022/09/26 07:10:50;;;;;;;1.63;0.80;;;22.20;53.10;;;;;;5049633;28;20033;-59
2022/09/26 07:13:16;;;;;;;1.42;1.08;;;22.30;53.30;;;;;;5048519;28;20025;-59
2022/09/26 07:15:46;;;;;;;4.07;0.95;;;22.20;53.40;;;;;;5046403;28;20439;-56
2022/09/26 07:18:12;;;;;;;0.93;0.70;;;22.30;53.60;;;;;;5041877;28;20033;-59
2022/09/26 07:20:39;;;;;;;2.60;1.00;;;22.20;53.60;;;;;;5049875;28;20045;-59
2022/09/26 07:23:10;;;;;;;2.58;0.90;;;22.30;53.60;;;;;;5049672;28;20033;-48
2022/09/26 07:25:38;;;;;;;3.83;1.27;;;22.30;53.80;;;;;;5047446;28;20017;-59
2022/09/26 07:28:04;;;;;;;2.45;1.02;;;22.30;53.90;;;;;;5050764;28;20116;-48
2022/09/26 07:30:30;;;;;;;1.17;0.80;;;22.30;54.00;;;;;;5052853;28;20040;-60
2022/09/26 07:33:01;;;;;;;1.15;0.60;;;22.30;54.00;;;;;;5053162;28;20099;-57
2022/09/26 07:35:31;;;;;;;1.73;0.80;;;22.30;54.10;;;;;;5049497;28;20134;-59
2022/09/26 07:37:58;;;;;;;1.13;0.95;;;22.30;54.30;;;;;;5053820;28;20098;-59
2022/09/26 07:40:25;;;;;;;2.20;0.77;;;22.20;54.20;;;;;;5052737;28;20029;-59
2022/09/26 07:42:51;;;;;;;1.60;0.75;;;22.20;54.30;;;;;;5052138;28;20531;-59
2022/09/26 07:50:59;;;;;;;4.20;0.90;;;22.20;54.40;;;;;;5053349;28;20039;-60
2022/09/26 07:53:26;;;;;;;1.75;0.82;;;22.20;54.50;;;;;;5049344;28;20021;-59
2022/09/26 07:56:04;;;;;;;2.42;1.08;;;22.20;54.40;;;;;;5053715;28;20104;-59
2022/09/26 07:58:31;;;;;;;1.95;1.02;;;22.20;54.50;;;;;;5052588;28;20033;-59
2022/09/26 08:00:57;;;;;;;1.00;0.60;;;22.20;54.50;;;;;;5052757;28;20099;-59
2022/09/26 08:03:27;;;;;;;1.50;0.80;;;22.20;54.50;;;;;;5051756;28;20048;-59
2022/09/26 08:05:59;;;;;;;1.40;0.80;;;22.20;54.50;;;;;;5053454;28;20188;-59
2022/09/26 08:08:25;;;;;;;1.63;1.00;;;22.20;54.50;;;;;;5051456;28;20028;-56
2022/09/26 08:10:51;;;;;;;2.05;0.65;;;22.20;54.50;;;;;;5053394;28;20037;-53
2022/09/26 08:13:17;;;;;;;1.40;0.90;;;22.20;54.50;;;;;;5051712;28;20091;-59
2022/09/26 08:15:42;;;;;;;2.25;0.90;;;22.20;54.50;;;;;;5051464;28;20025;-59
2022/09/26 08:18:08;;;;;;;1.00;0.70;;;22.20;54.50;;;;;;5048584;28;20500;-50
2022/09/26 08:20:34;;;;;;;1.73;0.68;;;22.20;54.60;;;;;;5052531;28;20033;-59
2022/09/26 08:23:00;;;;;;;1.08;0.70;;;22.20;54.60;;;;;;5050544;28;20063;-59
2022/09/26 08:25:25;;;;;;;1.15;0.63;;;22.20;54.60;;;;;;5048264;28;20477;-58
2022/09/26 08:27:52;;;;;;;1.92;1.10;;;22.20;54.60;;;;;;5052074;28;20025;-59
2022/09/26 08:30:18;;;;;;;2.25;0.98;;;22.20;54.50;;;;;;5046114;28;20078;-59
2022/09/26 08:32:52;;;;;;;1.33;0.98;;;22.20;54.60;;;;;;5052791;28;20036;-59
2022/09/26 08:35:17;;;;;;;6.05;1.13;;;22.30;54.70;;;;;;5046120;28;20043;-59
2022/09/26 08:37:43;;;;;;;4.13;1.10;;;22.20;54.60;;;;;;5049041;28;20028;-59
2022/09/26 08:40:09;;;;;;;3.38;1.02;;;22.30;54.60;;;;;;5041491;28;20041;-58
2022/09/26 08:42:58;;;;;;;1.88;0.85;;;22.30;54.60;;;;;;5049881;28;20029;-59
2022/09/26 08:48:42;;;;;;;1.77;0.93;;;22.30;54.70;;;;;;5050884;28;20031;-59
2022/09/26 08:51:13;;;;;;;1.65;0.80;;;22.30;54.80;;;;;;5050055;28;20466;-57
2022/09/26 08:53:48;;;;;;;1.20;0.70;;;22.30;54.80;;;;;;5052070;28;20032;-59
2022/09/26 08:56:20;;;;;;;1.05;0.65;;;22.30;54.80;;;;;;5051781;28;20029;-58
2022/09/26 08:58:51;;;;;;;1.92;0.80;;;22.30;54.80;;;;;;5050997;28;20025;-58
2022/09/26 09:01:27;;;;;;;2.38;0.85;;;22.30;54.80;;;;;;5050834;28;20485;-58
2022/09/26 09:04:01;;;;;;;1.83;0.90;;;22.30;54.80;;;;;;5048884;28;20151;-60
2022/09/26 09:06:27;;;;;;;4.10;0.77;;;22.30;54.90;;;;;;5042924;28;20039;-59
2022/09/26 09:08:55;;;;;;;0.80;0.70;;;22.30;55.00;;;;;;5051145;28;20059;-54
2022/09/26 09:11:41;;;;;;;1.55;0.73;;;22.30;55.10;;;;;;5042021;28;20053;-56
2022/09/26 09:14:31;;;;;;;1.58;0.70;;;22.30;54.90;;;;;;5051317;28;20056;-48
2022/09/26 09:16:59;;;;;;;2.30;1.00;;;22.30;55.00;;;;;;5048721;28;20032;-58
2022/09/26 09:19:35;;;;;;;1.17;0.95;;;22.30;55.00;;;;;;5050247;28;20625;-53
2022/09/26 09:22:20;;;;;;;0.80;0.60;;;22.30;55.00;;;;;;5051618;28;20025;-59
2022/09/26 09:25:15;;;;;;;1.88;0.73;;;22.30;55.00;;;;;;5047326;28;20029;-59
2022/09/26 09:27:57;;;;;;;1.10;0.80;;;22.30;55.00;;;;;;5050245;28;20029;-58
2022/09/26 09:30:27;;;;;;;2.35;0.73;;;22.30;55.00;;;;;;5046702;28;20956;-58
2022/09/26 09:32:56;;;;;;;1.80;0.77;;;22.30;54.90;;;;;;5051349;28;20120;-59
2022/09/26 09:35:41;;;;;;;0.93;0.70;;;22.30;55.00;;;;;;5050275;28;20437;-55
2022/09/26 09:38:13;;;;;;;0.95;0.60;;;22.30;54.90;;;;;;5045210;28;20429;-50
2022/09/26 09:40:45;;;;;;;2.78;0.88;;;22.30;55.10;;;;;;5049141;28;20033;-59
2022/09/26 09:43:36;;;;;;;1.98;1.08;;;22.30;55.00;;;;;;5049916;28;20029;-59
2022/09/26 09:46:28;;;;;;;1.80;0.87;;;22.30;55.00;;;;;;5043281;28;20111;-60
2022/09/26 09:49:12;;;;;;;5.65;1.05;;;22.30;54.90;;;;;;5050604;28;20056;-56
2022/09/26 09:52:01;;;;;;;2.83;0.90;;;22.40;55.00;;;;;;5051067;28;20063;-59
2022/09/26 09:54:32;;;;;;;1.90;0.80;;;22.40;55.10;;;;;;5049120;28;20033;-58
2022/09/26 09:57:25;;;;;;;1.63;0.73;;;22.30;55.00;;;;;;5049157;28;20576;-59
2022/09/26 09:59:57;;;;;;;0.85;0.55;;;22.30;55.00;;;;;;5048600;28;20033;-59
2022/09/26 10:02:30;;;;;;;;;;;22.40;55.10;;;;;;5050232;28;20726;-59
2022/09/26 10:05:34;;;;;;;2.13;0.90;;;22.40;55.00;;;;;;5049787;28;19912;-59
2022/09/26 10:08:01;;;;;;;1.83;0.88;;;22.40;55.30;;;;;;5044169;28;20067;-58
2022/09/26 10:10:38;;;;;;;1.77;0.90;;;22.40;55.20;;;;;;5049782;28;20040;-59
2022/09/26 10:13:05;;;;;;;3.22;0.82;;;22.40;55.30;;;;;;5050189;28;20037;-49
2022/09/26 10:15:32;;;;;;;1.33;0.80;;;22.40;55.40;;;;;;5050534;28;20055;-59
2022/09/26 10:18:20;;;;;;;1.60;0.70;;;22.40;55.30;;;;;;5051234;28;20016;-59
2022/09/26 10:20:56;;;;;;;1.33;0.70;;;22.40;55.30;;;;;;5044721;28;20115;-59
2022/09/26 10:23:45;;;;;;;1.25;0.70;;;22.40;55.20;;;;;;5049055;28;20107;-60
2022/09/26 10:26:15;;;;;;;2.05;1.30;;;22.40;55.30;;;;;;5047643;28;20028;-58
2022/09/26 10:28:54;;;;;;;2.92;1.00;;;22.40;55.30;;;;;;5050682;28;20111;-59
2022/09/26 10:31:36;;;;;;;2.83;0.68;;;22.40;55.20;;;;;;5049978;28;20469;-59
2022/09/26 10:34:06;;;;;;;2.22;0.60;;;22.40;55.90;;;;;;5047394;28;20032;-59
2022/09/26 10:36:33;;;;;;;2.53;0.60;;;22.40;55.20;;;;;;5049772;28;20040;-58
2022/09/26 10:41:56;;;;;;;1.75;0.57;;;22.40;55.20;;;;;;5007067;28;20036;-58
2022/09/26 10:44:25;;;;;;;3.55;0.98;;;22.40;55.20;;;;;;5049263;28;20428;-60
2022/09/26 10:46:56;;;;;;;2.83;0.90;;;22.40;55.30;;;;;;5048343;28;20477;-59
2022/09/26 10:49:28;;;;;;;0.88;0.60;;;22.30;55.30;;;;;;5048869;28;20025;-59
2022/09/26 10:52:14;;;;;;;4.20;0.90;;;22.30;55.10;;;;;;5050075;28;20021;-59
2022/09/26 10:54:47;;;;;;;2.75;0.90;;;22.30;55.00;;;;;;5044878;28;20056;-59
2022/09/26 10:57:23;;;;;;;2.40;0.90;;;22.30;55.10;;;;;;5048360;28;20048;-59
2022/09/26 10:59:50;;;;;;;3.15;0.73;;;22.30;54.90;;;;;;5048368;28;20580;-59
2022/09/26 11:02:21;;;;;;;2.03;0.73;;;22.30;54.90;;;;;;5048234;28;20049;-59
2022/09/26 11:07:37;;;;;;;3.05;0.75;;;22.30;54.80;;;;;;5054451;28;20032;-58
2022/09/26 11:10:12;;;;;;;1.42;0.80;;;22.30;54.80;;;;;;5049008;28;20020;-48
2022/09/26 11:12:53;;;;;;;4.55;0.80;;;22.30;54.70;;;;;;5054611;28;20033;-58
2022/09/26 11:15:18;;;;;;;1.05;0.80;;;22.30;54.80;;;;;;5049482;28;20043;-56
2022/09/26 11:17:47;;;;;;;1.67;0.73;;;22.30;54.80;;;;;;5053921;28;20521;-59
2022/09/26 11:20:22;;;;;;;1.20;0.60;;;22.30;54.70;;;;;;5052622;28;20033;-58
2022/09/26 11:23:06;;;;;;;5.18;0.70;;;22.30;54.80;;;;;;5048827;28;20037;-60
2022/09/26 11:25:46;;;;;;;3.22;1.33;;;22.30;54.60;;;;;;5053222;28;20033;-60
2022/09/26 11:28:22;;;;;;;1.80;0.80;;;22.40;54.80;;;;;;5052811;28;20536;-58
2022/09/26 11:30:52;;;;;;;2.55;0.73;;;22.40;54.70;;;;;;5051266;28;20086;-59
2022/09/26 11:33:19;;;;;;;2.47;0.70;;;22.40;54.70;;;;;;5052329;28;20029;-59
2022/09/26 11:36:01;;;;;;;2.13;0.90;;;22.40;54.80;;;;;;5053873;28;20025;-60
2022/09/26 11:38:49;;;;;;;2.10;0.80;;;22.40;55.00;;;;;;5047743;28;20609;-59
2022/09/26 11:41:44;;;;;;;2.45;0.85;;;22.40;55.00;;;;;;5052712;28;20084;-57
2022/09/26 11:44:46;;;;;;;2.80;1.05;;;22.40;55.10;;;;;;5049395;28;20032;-58
2022/09/26 11:47:12;;;;;;;1.85;0.85;;;22.40;55.10;;;;;;5051078;28;20529;-59
2022/09/26 11:50:19;;;;;;;3.17;1.23;;;22.40;55.20;;;;;;5051952;28;20195;-53
2022/09/26 11:52:59;;;;;;;2.42;1.27;;;22.40;55.40;;;;;;5039466;28;20452;-59
2022/09/26 11:55:31;;;;;;;2.75;0.73;;;22.40;55.30;;;;;;5049635;28;20087;-54
2022/09/26 11:58:22;;;;;;;1.17;0.77;;;22.40;55.40;;;;;;5053582;28;20025;-59
2022/09/26 12:01:15;;;;;;;1.15;0.65;;;22.40;55.40;;;;;;5049748;28;20529;-60
2022/09/26 12:04:19;;;;;;;6.43;0.82;;;22.40;55.40;;;;;;5052638;28;20044;-57
2022/09/26 12:06:53;;;;;;;3.22;0.88;;;22.40;55.70;;;;;;5049732;28;20037;-57
2022/09/26 12:09:34;;;;;;;2.50;0.80;;;22.40;55.60;;;;;;5040313;28;20025;-59
2022/09/26 12:12:09;;;;;;;5.88;0.80;;;22.40;55.50;;;;;;5052688;28;20021;-59
2022/09/26 12:14:44;;;;;;;4.55;0.85;;;22.40;55.50;;;;;;5051217;28;20078;-59
2022/09/26 12:17:25;;;;;;;2.38;1.20;;;22.40;55.50;;;;;;5040687;28;20021;-58
2022/09/26 12:20:15;;;;;;;5.53;1.15;;;22.40;55.40;;;;;;5051339;28;20040;-57
2022/09/26 12:23:06;;;;;;;2.25;0.75;;;22.40;55.50;;;;;;5052286;28;20029;-55
2022/09/26 12:25:37;;;;;;;3.95;1.13;;;22.40;55.50;;;;;;5051868;28;20048;-59
2022/09/26 12:28:32;;;;;;;4.07;1.25;;;22.40;55.40;;;;;;5053446;28;20038;-59
2022/09/26 12:31:17;;;;;;;1.75;0.82;;;22.40;55.40;;;;;;5052825;28;20044;-58
2022/09/26 12:33:54;;;;;;;2.08;0.73;;;22.40;55.50;;;;;;5046033;28;20465;-58
2022/09/26 12:36:46;;;;;;;2.67;0.65;;;22.40;55.40;;;;;;5053721;28;20028;-59
2022/09/26 12:39:27;;;;;;;1.25;0.60;;;22.40;55.30;;;;;;5043836;28;20041;-58
2022/09/26 12:42:02;;;;;;;3.08;0.80;;;22.40;55.40;;;;;;5048682;28;20037;-59
2022/09/26 12:44:47;;;;;;;1.65;0.70;;;22.50;55.50;;;;;;5049410;28;20032;-59
2022/09/26 12:47:38;;;;;;;2.55;0.80;;;22.50;55.50;;;;;;5051362;28;20029;-55
2022/09/26 12:50:29;;;;;;;1.63;0.68;;;22.50;55.50;;;;;;5051836;28;20033;-48
2022/09/26 12:53:16;;;;;;;1.70;0.65;;;22.50;55.50;;;;;;5048485;28;20048;-58
2022/09/26 12:56:06;;;;;;;3.70;0.70;;;22.50;55.40;;;;;;5051805;28;20469;-59
2022/09/26 12:58:41;;;;;;;2.03;0.82;;;22.50;55.40;;;;;;5051168;28;20029;-58
2022/09/26 13:01:38;;;;;;;3.92;0.80;;;22.50;55.40;;;;;;5045592;28;21019;-48
2022/09/26 13:04:38;;;;;;;1.85;0.60;;;22.50;55.40;;;;;;5049445;28;20029;-48
2022/09/26 13:07:30;;;;;;;2.25;0.68;;;22.50;55.40;;;;;;5051999;28;20048;-53
2022/09/26 13:10:20;;;;;;;2.25;0.70;;;22.50;55.40;;;;;;5047922;28;20124;-59
2022/09/26 13:13:09;;;;;;;3.45;0.75;;;22.50;55.30;;;;;;5051732;28;20412;-57
2022/09/26 13:16:11;;;;;;;2.15;0.65;;;22.50;55.30;;;;;;5051040;28;20025;-59
2022/09/26 13:18:44;;;;;;;1.02;0.90;;;22.40;55.20;;;;;;5047223;28;20033;-59
2022/09/26 13:21:15;;;;;;;5.80;1.13;;;22.40;55.30;;;;;;5051014;28;20397;-58
2022/09/26 13:23:54;;;;;;;2.22;0.90;;;22.50;55.30;;;;;;5048427;28;20473;-58
2022/09/26 13:26:28;;;;;;;1.33;0.65;;;22.50;54.90;;;;;;5050168;28;20048;-55
2022/09/26 13:29:02;;;;;;;1.98;0.70;;;22.50;54.90;;;;;;5045769;28;20389;-50
2022/09/26 13:31:46;;;;;;;1.67;0.60;;;22.50;55.10;;;;;;5050361;28;20138;-58
2022/09/26 13:34:17;;;;;;;1.38;0.77;;;22.50;55.00;;;;;;5050587;28;20044;-58
2022/09/26 13:36:44;;;;;;;1.38;0.60;;;22.40;55.00;;;;;;5049754;28;20029;-58
2022/09/26 13:39:30;;;;;;;3.63;0.80;;;22.50;55.00;;;;;;5049399;28;20048;-59